createdAt,value
2018-12-16T00:02:14.307Z,19.67
2018-12-16T00:04:46.677Z,22.03
2018-12-16T00:07:08.221Z,19.93
2018-12-16T00:09:35.168Z,19.70
2018-12-16T00:12:02.115Z,23.17
2018-12-16T00:14:29.136Z,19.73
2018-12-16T00:16:56.084Z,20.50
2018-12-16T00:19:23.024Z,21.30
2018-12-16T00:21:50.166Z,19.27
2018-12-16T00:24:17.215Z,19.10
2018-12-16T00:26:55.842Z,18.97
2018-12-16T00:29:22.780Z,21.00
2018-12-16T00:31:49.754Z,19.03
2018-12-16T00:34:16.705Z,18.17
2018-12-16T00:36:43.651Z,18.40
2018-12-16T00:39:10.649Z,17.53
2018-12-16T00:41:37.645Z,20.10
2018-12-16T00:44:04.600Z,18.53
2018-12-16T00:46:31.589Z,18.80
2018-12-16T00:48:58.612Z,17.90
2018-12-16T00:51:25.568Z,19.63
2018-12-16T00:53:52.524Z,19.03
2018-12-16T00:56:19.473Z,18.93
2018-12-16T00:58:46.410Z,21.27
2018-12-16T01:01:13.909Z,18.43
2018-12-16T01:03:40.882Z,17.87
2018-12-16T01:06:07.837Z,17.93
2018-12-16T01:08:34.791Z,20.80
2018-12-16T01:11:01.787Z,17.70
2018-12-16T01:13:28.763Z,18.07
2018-12-16T01:15:55.716Z,19.93
2018-12-16T01:18:22.721Z,20.20
2018-12-16T01:20:49.668Z,17.87
2018-12-16T01:23:16.612Z,17.80
2018-12-16T01:25:43.618Z,20.70
2018-12-16T01:28:10.552Z,18.63
2018-12-16T01:30:37.576Z,17.93
2018-12-16T01:33:04.532Z,18.57
2018-12-16T01:35:31.479Z,18.37
2018-12-16T01:37:58.428Z,20.13
2018-12-16T01:40:25.400Z,19.43
2018-12-16T01:42:52.341Z,18.33
2018-12-16T01:45:19.291Z,17.33
2018-12-16T01:47:46.293Z,17.40
2018-12-16T01:50:13.333Z,18.90
2018-12-16T01:52:40.273Z,19.17
2018-12-16T01:55:07.378Z,19.37
2018-12-16T01:57:34.347Z,17.73
2018-12-16T02:00:01.281Z,19.53
2018-12-16T02:02:28.629Z,18.60
2018-12-16T02:04:55.563Z,20.87
2018-12-16T02:07:22.516Z,20.80
2018-12-16T02:09:49.491Z,19.83
2018-12-16T02:12:16.483Z,20.60
2018-12-16T02:14:43.441Z,18.60
2018-12-16T02:17:10.448Z,19.70
2018-12-16T02:19:37.804Z,21.67
2018-12-16T02:22:05.087Z,21.97
2018-12-16T02:24:32.462Z,19.53
2018-12-16T02:26:59.412Z,19.03
2018-12-16T02:29:26.416Z,21.07
2018-12-16T02:31:53.378Z,19.87
2018-12-16T02:34:20.633Z,20.37
2018-12-16T02:36:47.544Z,19.77
2018-12-16T02:39:14.531Z,19.80
2018-12-16T02:41:41.476Z,22.27
2018-12-16T02:44:08.424Z,20.93
2018-12-16T02:46:35.373Z,21.37
2018-12-16T02:49:02.320Z,19.57
2018-12-16T02:51:29.266Z,19.60
2018-12-16T02:53:56.217Z,21.70
2018-12-16T02:56:23.170Z,21.63
2018-12-16T02:58:50.097Z,19.10
2018-12-16T03:01:17.082Z,18.13
2018-12-16T03:03:44.416Z,22.37
2018-12-16T03:06:11.425Z,17.70
2018-12-16T03:08:38.409Z,18.13
2018-12-16T03:11:05.414Z,21.57
2018-12-16T03:13:32.359Z,18.33
2018-12-16T03:15:59.333Z,19.23
2018-12-16T03:18:26.285Z,19.53
2018-12-16T03:20:53.233Z,21.10
2018-12-16T03:23:20.187Z,19.80
2018-12-16T03:25:47.136Z,18.80
2018-12-16T03:28:14.121Z,19.57
2018-12-16T03:30:41.077Z,20.87
2018-12-16T03:33:08.039Z,18.80
2018-12-16T03:35:35.001Z,22.33
2018-12-16T03:38:01.961Z,19.53
2018-12-16T03:40:28.907Z,19.00
2018-12-16T03:42:55.863Z,18.47
2018-12-16T03:45:22.861Z,19.20
2018-12-16T03:47:49.814Z,21.70
2018-12-16T03:50:16.758Z,20.40
2018-12-16T03:52:43.711Z,22.57
2018-12-16T03:55:10.699Z,18.20
2018-12-16T03:57:37.665Z,20.20
2018-12-16T04:00:05.137Z,20.83
2018-12-16T04:02:32.075Z,21.60
2018-12-16T04:04:59.268Z,18.83
2018-12-16T04:07:26.239Z,19.93
2018-12-16T04:09:53.180Z,21.03
2018-12-16T04:12:20.168Z,22.17
2018-12-16T04:14:47.144Z,20.97
2018-12-16T04:17:14.079Z,19.27
2018-12-16T04:19:41.050Z,19.13
2018-12-16T04:22:08.070Z,20.87
2018-12-16T04:24:35.025Z,21.20
2018-12-16T04:27:01.973Z,20.60
2018-12-16T04:29:28.921Z,23.20
2018-12-16T04:31:55.852Z,21.60
2018-12-16T04:34:22.811Z,20.10
2018-12-16T04:36:49.774Z,20.90
2018-12-16T04:39:16.723Z,20.80
2018-12-16T04:41:43.682Z,19.73
2018-12-16T04:44:10.702Z,20.00
2018-12-16T04:46:37.630Z,20.00
2018-12-16T04:49:04.592Z,19.40
2018-12-16T04:51:31.546Z,20.33
2018-12-16T04:53:58.485Z,21.03
2018-12-16T04:56:25.417Z,20.63
2018-12-16T04:58:52.388Z,19.87
2018-12-16T05:01:19.344Z,18.70
2018-12-16T05:03:46.288Z,21.23
2018-12-16T05:06:13.448Z,19.30
2018-12-16T05:08:40.471Z,22.13
2018-12-16T05:11:07.441Z,23.47
2018-12-16T05:13:34.453Z,21.83
2018-12-16T05:16:01.388Z,22.13
2018-12-16T05:18:28.333Z,21.47
2018-12-16T05:20:55.312Z,23.47
2018-12-16T05:23:22.281Z,22.30
2018-12-16T05:25:49.233Z,19.70
2018-12-16T05:28:16.193Z,23.17
2018-12-16T05:30:43.133Z,27.40
2018-12-16T05:33:10.073Z,22.30
2018-12-16T05:35:37.112Z,22.13
2018-12-16T05:38:04.061Z,23.33
2018-12-16T05:40:31.001Z,22.57
2018-12-16T05:42:57.977Z,23.73
2018-12-16T05:45:24.917Z,22.20
2018-12-16T05:47:51.944Z,23.37
2018-12-16T05:50:18.921Z,24.70
2018-12-16T05:52:45.849Z,25.50
2018-12-16T05:55:12.799Z,26.53
2018-12-16T05:57:39.796Z,23.53
2018-12-16T06:00:06.802Z,30.17
2018-12-16T06:02:33.745Z,23.30
2018-12-16T06:05:00.741Z,24.23
2018-12-16T06:07:28.154Z,25.70
2018-12-16T06:09:55.098Z,23.93
2018-12-16T06:12:22.134Z,26.63
2018-12-16T06:14:49.145Z,26.63
2018-12-16T06:17:16.137Z,28.70
2018-12-16T06:19:43.124Z,24.43
2018-12-16T06:22:10.128Z,25.97
2018-12-16T06:24:37.072Z,22.90
2018-12-16T06:27:04.054Z,24.03
2018-12-16T06:29:31.018Z,27.93
2018-12-16T06:31:57.971Z,22.97
2018-12-16T06:34:24.928Z,26.40
2018-12-16T06:36:51.952Z,25.13
2018-12-16T06:39:18.912Z,24.47
2018-12-16T06:41:45.886Z,26.17
2018-12-16T06:44:12.848Z,28.30
2018-12-16T06:46:39.792Z,26.53
2018-12-16T06:49:06.761Z,23.77
2018-12-16T06:51:33.704Z,26.73
2018-12-16T06:54:02.627Z,29.60
2018-12-16T06:56:27.676Z,27.77
2018-12-16T06:58:54.651Z,25.03
2018-12-16T07:01:21.663Z,26.33
2018-12-16T07:03:48.628Z,26.33
2018-12-16T07:06:15.676Z,26.00
2018-12-16T07:08:42.873Z,24.93
2018-12-16T07:11:09.848Z,32.53
2018-12-16T07:13:36.805Z,26.63
2018-12-16T07:16:03.786Z,23.47
2018-12-16T07:18:30.773Z,26.67
2018-12-16T07:20:57.735Z,28.47
2018-12-16T07:23:24.680Z,28.83
2018-12-16T07:25:51.704Z,31.07
2018-12-16T07:28:18.659Z,28.10
2018-12-16T07:30:45.603Z,28.20
2018-12-16T07:33:12.587Z,26.63
2018-12-16T07:35:39.529Z,26.80
2018-12-16T07:38:06.502Z,28.83
2018-12-16T07:40:33.450Z,31.03
2018-12-16T07:43:00.418Z,36.20
2018-12-16T07:45:27.355Z,26.97
2018-12-16T07:47:54.315Z,30.47
2018-12-16T07:50:21.447Z,26.80
2018-12-16T07:52:48.416Z,30.30
2018-12-16T07:55:15.363Z,32.63
2018-12-16T07:57:42.311Z,26.20
2018-12-16T08:00:10.536Z,27.63
2018-12-16T08:02:37.567Z,28.40
2018-12-16T08:05:04.776Z,25.83
2018-12-16T08:07:31.677Z,27.40
2018-12-16T08:09:58.859Z,26.40
2018-12-16T08:12:25.803Z,25.13
2018-12-16T08:14:52.757Z,27.00
2018-12-16T08:17:19.730Z,25.70
2018-12-16T08:19:46.720Z,26.10
2018-12-16T08:22:13.668Z,25.97
2018-12-16T08:24:40.660Z,22.90
2018-12-16T08:27:07.620Z,24.47
2018-12-16T08:29:34.601Z,22.63
2018-12-16T08:32:01.613Z,25.77
2018-12-16T08:34:28.559Z,24.93
2018-12-16T08:36:55.528Z,25.97
2018-12-16T08:39:22.548Z,24.00
2018-12-16T08:41:49.548Z,23.43
2018-12-16T08:44:16.520Z,25.10
2018-12-16T08:46:43.540Z,26.13
2018-12-16T08:49:10.492Z,24.07
2018-12-16T08:51:37.444Z,23.43
2018-12-16T08:54:04.426Z,27.47
2018-12-16T08:56:31.444Z,21.23
2018-12-16T08:58:58.364Z,24.10
2018-12-16T09:01:25.325Z,22.70
2018-12-16T09:03:52.309Z,21.23
2018-12-16T09:06:19.413Z,20.83
2018-12-16T09:08:46.437Z,23.10
2018-12-16T09:11:13.690Z,21.40
2018-12-16T09:13:40.644Z,19.33
2018-12-16T09:16:07.606Z,22.90
2018-12-16T09:18:34.547Z,20.90
2018-12-16T09:21:01.504Z,21.27
2018-12-16T09:23:28.469Z,21.30
2018-12-16T09:25:55.420Z,22.57
2018-12-16T09:28:22.420Z,22.57
2018-12-16T09:30:49.478Z,19.37
2018-12-16T09:33:16.523Z,21.70
2018-12-16T09:35:43.581Z,23.77
2018-12-16T09:38:10.911Z,22.70
2018-12-16T09:40:37.847Z,24.47
2018-12-16T09:43:04.849Z,20.40
2018-12-16T09:45:31.827Z,20.67
2018-12-16T09:47:58.775Z,23.33
2018-12-16T09:50:25.720Z,21.93
2018-12-16T09:52:52.676Z,22.27
2018-12-16T09:55:19.632Z,21.93
2018-12-16T09:57:46.579Z,21.20
2018-12-16T10:00:13.788Z,19.87
2018-12-16T10:02:40.750Z,20.50
2018-12-16T10:05:07.706Z,21.00
2018-12-16T10:07:34.829Z,21.07
2018-12-16T10:10:01.780Z,22.87
2018-12-16T10:12:29.463Z,20.23
2018-12-16T10:14:56.433Z,20.60
2018-12-16T10:17:23.765Z,18.13
2018-12-16T10:19:50.713Z,17.73
2018-12-16T10:22:17.765Z,22.63
2018-12-16T10:24:51.032Z,18.63
2018-12-16T10:27:11.660Z,21.73
2018-12-16T10:29:38.670Z,20.40
2018-12-16T10:32:05.580Z,17.33
2018-12-16T10:34:32.528Z,19.33
2018-12-16T10:36:59.585Z,19.50
2018-12-16T10:39:26.548Z,18.03
2018-12-16T10:41:53.482Z,18.70
2018-12-16T10:44:20.449Z,21.30
2018-12-16T10:46:47.432Z,17.80
2018-12-16T10:49:15.005Z,16.47
2018-12-16T10:51:42.338Z,20.30
2018-12-16T10:54:09.466Z,18.00
2018-12-16T10:56:36.645Z,18.53
2018-12-16T10:59:03.969Z,18.00
2018-12-16T11:01:31.041Z,17.77
2018-12-16T11:03:58.225Z,18.63
2018-12-16T11:06:25.302Z,16.30
2018-12-16T11:08:52.339Z,18.57
2018-12-16T11:11:19.352Z,20.63
2018-12-16T11:13:46.851Z,17.90
2018-12-16T11:16:13.845Z,17.73
2018-12-16T11:18:40.796Z,25.30
2018-12-16T11:21:07.755Z,25.60
2018-12-16T11:23:34.689Z,20.33
2018-12-16T11:26:01.645Z,21.40
2018-12-16T11:28:28.824Z,20.90
2018-12-16T11:30:55.861Z,17.73
2018-12-16T11:33:23.270Z,17.20
2018-12-16T11:35:50.485Z,18.90
2018-12-16T11:38:17.541Z,16.73
2018-12-16T11:40:44.516Z,18.10
2018-12-16T11:43:11.473Z,18.77
2018-12-16T11:45:38.448Z,16.47
2018-12-16T11:48:06.051Z,15.03
2018-12-16T11:50:32.987Z,14.30
2018-12-16T11:52:59.936Z,16.40
2018-12-16T11:55:26.918Z,14.43
2018-12-16T11:57:53.887Z,14.63
2018-12-16T12:00:20.877Z,14.10
2018-12-16T12:02:48.415Z,14.27
2018-12-16T12:05:15.409Z,14.70
2018-12-16T12:07:42.483Z,16.73
2018-12-16T12:10:09.669Z,18.33
2018-12-16T12:12:36.635Z,15.80
2018-12-16T12:15:04.179Z,16.47
2018-12-16T12:17:31.213Z,17.37
2018-12-16T12:19:58.233Z,17.77
2018-12-16T12:22:25.452Z,20.73
2018-12-16T12:24:52.464Z,17.53
2018-12-16T12:27:19.660Z,17.83
2018-12-16T12:29:46.628Z,19.37
2018-12-16T12:32:13.952Z,20.47
2018-12-16T12:34:41.183Z,22.53
2018-12-16T12:37:08.735Z,22.57
2018-12-16T12:39:35.699Z,23.23
2018-12-16T12:42:02.673Z,20.23
2018-12-16T12:44:29.624Z,30.93
2018-12-16T12:46:56.580Z,29.77
2018-12-16T12:49:23.611Z,26.97
2018-12-16T12:51:50.601Z,29.63
2018-12-16T12:54:17.579Z,26.13
2018-12-16T12:56:44.551Z,22.93
2018-12-16T12:59:11.514Z,22.83
2018-12-16T13:01:38.548Z,19.40
2018-12-16T13:04:05.514Z,17.67
2018-12-16T13:06:32.465Z,23.17
2018-12-16T13:08:59.452Z,22.87
2018-12-16T13:11:26.532Z,18.17
2018-12-16T13:13:53.528Z,21.23
2018-12-16T13:16:21.277Z,20.33
2018-12-16T13:18:48.274Z,19.97
2018-12-16T13:21:15.229Z,23.57
2018-12-16T13:23:43.082Z,20.57
2018-12-16T13:26:10.383Z,21.60
2018-12-16T13:28:37.579Z,20.93
2018-12-16T13:31:04.587Z,22.00
2018-12-16T13:33:31.604Z,21.70
2018-12-16T13:35:58.582Z,21.77
2018-12-16T13:38:25.516Z,23.60
2018-12-16T13:40:52.581Z,23.60
2018-12-16T13:43:19.578Z,19.97
2018-12-16T13:45:46.519Z,22.60
2018-12-16T13:48:13.535Z,23.27
2018-12-16T13:50:40.636Z,21.67
2018-12-16T13:53:07.700Z,21.63
2018-12-16T13:55:40.671Z,25.30
2018-12-16T13:58:01.665Z,24.27
2018-12-16T14:00:28.637Z,21.93
2018-12-16T14:02:55.613Z,26.00
2018-12-16T14:05:22.592Z,28.83
2018-12-16T14:07:49.547Z,30.57
2018-12-16T14:10:16.509Z,23.17
2018-12-16T14:12:43.450Z,25.57
2018-12-16T14:15:10.404Z,25.13
2018-12-16T14:17:37.896Z,22.33
2018-12-16T14:20:06.533Z,25.43
2018-12-16T14:22:33.481Z,24.13
2018-12-16T14:25:00.476Z,22.43
2018-12-16T14:27:27.423Z,25.23
2018-12-16T14:29:54.397Z,25.10
2018-12-16T14:32:21.391Z,25.70
2018-12-16T14:34:48.379Z,21.63
2018-12-16T14:37:15.315Z,22.17
2018-12-16T14:39:42.290Z,24.90
2018-12-16T14:42:09.236Z,25.80
2018-12-16T14:44:36.175Z,39.10
2018-12-16T14:47:03.186Z,30.93
2018-12-16T14:49:30.145Z,29.57
2018-12-16T14:51:57.088Z,26.37
2018-12-16T14:54:24.041Z,27.77
2018-12-16T14:56:50.996Z,26.57
2018-12-16T14:59:17.963Z,22.90
2018-12-16T15:01:44.915Z,26.43
2018-12-16T15:04:11.901Z,26.67
2018-12-16T15:06:38.929Z,24.57
2018-12-16T15:09:07.637Z,26.40
2018-12-16T15:11:34.645Z,25.30
2018-12-16T15:14:01.633Z,26.90
2018-12-16T15:16:28.591Z,24.97
2018-12-16T15:18:55.936Z,28.43
2018-12-16T15:21:22.876Z,28.17
2018-12-16T15:23:49.868Z,29.77
2018-12-16T15:26:16.821Z,28.33
2018-12-16T15:28:43.811Z,26.10
2018-12-16T15:31:10.755Z,23.37
2018-12-16T15:33:37.708Z,25.63
2018-12-16T15:36:04.652Z,23.57
2018-12-16T15:38:31.680Z,24.47
2018-12-16T15:40:58.617Z,22.47
2018-12-16T15:43:25.588Z,25.20
2018-12-16T15:45:52.611Z,24.90
2018-12-16T15:48:19.564Z,24.80
2018-12-16T15:50:47.878Z,27.63
2018-12-16T15:53:13.551Z,28.43
2018-12-16T15:55:40.500Z,31.37
2018-12-16T15:58:07.472Z,26.53
2018-12-16T16:00:34.447Z,22.70
2018-12-16T16:03:01.380Z,23.13
2018-12-16T16:05:28.347Z,22.60
2018-12-16T16:07:55.290Z,20.77
2018-12-16T16:10:22.221Z,25.30
2018-12-16T16:12:49.163Z,24.50
2018-12-16T16:15:16.120Z,25.27
2018-12-16T16:17:43.080Z,24.23
2018-12-16T16:20:10.655Z,23.53
2018-12-16T16:22:37.643Z,26.10
2018-12-16T16:25:04.588Z,23.27
2018-12-16T16:27:31.552Z,23.20
2018-12-16T16:29:58.565Z,25.77
2018-12-16T16:32:25.525Z,25.53
2018-12-16T16:34:52.478Z,40.13
2018-12-16T16:37:19.450Z,41.40
2018-12-16T16:39:46.401Z,60.60
2018-12-16T16:42:13.324Z,70.97
2018-12-16T16:44:40.293Z,48.30
2018-12-16T16:47:07.256Z,43.93
2018-12-16T16:49:34.189Z,28.40
2018-12-16T16:52:01.174Z,28.27
2018-12-16T16:54:28.099Z,51.03
2018-12-16T16:56:55.050Z,49.40
2018-12-16T16:59:22.049Z,43.40
2018-12-16T17:01:48.976Z,43.63
2018-12-16T17:04:15.922Z,25.27
2018-12-16T17:06:42.900Z,22.90
2018-12-16T17:09:09.848Z,25.30
2018-12-16T17:11:36.805Z,25.30
2018-12-16T17:14:03.789Z,27.27
2018-12-16T17:16:30.731Z,26.27
2018-12-16T17:18:58.216Z,22.83
2018-12-16T17:21:25.355Z,23.37
2018-12-16T17:23:52.312Z,21.07
2018-12-16T17:26:19.251Z,24.00
2018-12-16T17:28:46.216Z,26.53
2018-12-16T17:31:13.160Z,24.17
2018-12-16T17:33:40.096Z,25.87
2018-12-16T17:36:07.063Z,23.80
2018-12-16T17:38:34.002Z,26.63
2018-12-16T17:41:00.928Z,29.03
2018-12-16T17:43:27.917Z,25.03
2018-12-16T17:45:54.847Z,27.63
2018-12-16T17:48:21.812Z,26.70
2018-12-16T17:50:48.751Z,27.97
2018-12-16T17:53:15.691Z,26.90
2018-12-16T17:55:42.637Z,21.40
2018-12-16T17:58:09.571Z,26.70
2018-12-16T18:00:36.518Z,24.17
2018-12-16T18:03:03.461Z,27.80
2018-12-16T18:05:30.444Z,23.10
2018-12-16T18:07:57.371Z,25.03
2018-12-16T18:10:24.313Z,23.47
2018-12-16T18:12:51.261Z,24.00
2018-12-16T18:15:18.208Z,25.53
2018-12-16T18:17:45.153Z,25.67
2018-12-16T18:20:12.127Z,26.27
2018-12-16T18:22:39.476Z,24.23
2018-12-16T18:25:06.440Z,24.17
2018-12-16T18:27:33.406Z,22.80
2018-12-16T18:30:00.344Z,23.10
2018-12-16T18:32:27.360Z,24.23
2018-12-16T18:34:54.346Z,23.27
2018-12-16T18:37:21.288Z,21.30
2018-12-16T18:39:48.248Z,23.30
2018-12-16T18:42:15.264Z,21.43
2018-12-16T18:44:42.208Z,21.93
2018-12-16T18:47:09.149Z,21.33
2018-12-16T18:49:37.057Z,22.37
2018-12-16T18:52:04.047Z,22.67
2018-12-16T18:54:31.047Z,26.20
2018-12-16T18:56:58.080Z,26.50
2018-12-16T18:59:25.005Z,24.50
2018-12-16T19:01:51.935Z,24.03
2018-12-16T19:04:21.002Z,26.13
2018-12-16T19:06:47.949Z,24.83
2018-12-16T19:09:15.021Z,24.53
2018-12-16T19:11:42.010Z,24.13
2018-12-16T19:14:09.028Z,24.70
2018-12-16T19:16:35.999Z,26.07
2018-12-16T19:19:02.985Z,26.80
2018-12-16T19:21:29.933Z,27.97
2018-12-16T19:23:58.317Z,28.10
2018-12-16T19:26:25.230Z,23.90
2018-12-16T19:28:52.246Z,27.07
2018-12-16T19:31:19.239Z,24.93
2018-12-16T19:33:46.872Z,25.80
2018-12-16T19:36:13.870Z,28.73
2018-12-16T19:38:40.820Z,27.17
2018-12-16T19:41:07.876Z,25.63
2018-12-16T19:43:35.426Z,25.97
2018-12-16T19:46:02.461Z,33.37
2018-12-16T19:48:29.863Z,27.77
2018-12-16T19:50:56.848Z,36.67
2018-12-16T19:53:23.814Z,29.27
2018-12-16T19:55:50.826Z,31.17
2018-12-16T19:58:17.803Z,28.23
2018-12-16T20:00:44.883Z,26.37
2018-12-16T20:03:11.890Z,26.20
2018-12-16T20:05:44.624Z,24.50
2018-12-16T20:08:11.801Z,26.13
2018-12-16T20:10:38.785Z,28.07
2018-12-16T20:13:05.761Z,29.90
2018-12-16T20:15:32.706Z,31.23
2018-12-16T20:17:59.756Z,28.43
2018-12-16T20:20:26.744Z,27.00
2018-12-16T20:22:53.880Z,30.27
2018-12-16T20:25:21.319Z,30.63
2018-12-16T20:27:48.262Z,26.83
2018-12-16T20:30:21.789Z,23.47
2018-12-16T20:32:48.752Z,28.83
2018-12-16T20:35:15.724Z,23.33
2018-12-16T20:37:42.747Z,25.30
2018-12-16T20:40:09.716Z,22.77
2018-12-16T20:42:36.655Z,21.30
2018-12-16T20:45:04.792Z,20.50
2018-12-16T20:47:31.821Z,22.13
2018-12-16T20:49:58.800Z,22.70
2018-12-16T20:52:25.757Z,24.40
2018-12-16T20:54:52.702Z,21.37
2018-12-16T20:57:19.658Z,23.97
2018-12-16T20:59:46.614Z,21.90
2018-12-16T21:02:13.561Z,21.73
2018-12-16T21:04:40.489Z,20.10
2018-12-16T21:07:07.454Z,24.13
2018-12-16T21:09:34.406Z,21.00
2018-12-16T21:12:01.351Z,23.30
2018-12-16T21:14:34.261Z,23.10
2018-12-16T21:17:07.055Z,22.80
2018-12-16T21:19:33.991Z,21.50
2018-12-16T21:22:00.984Z,24.57
2018-12-16T21:24:27.931Z,24.63
2018-12-16T21:26:55.140Z,20.67
2018-12-16T21:29:22.108Z,22.20
2018-12-16T21:31:49.068Z,21.23
2018-12-16T21:34:16.039Z,22.00
2018-12-16T21:36:43.033Z,23.83
2018-12-16T21:39:10.001Z,20.70
2018-12-16T21:41:37.060Z,20.73
2018-12-16T21:44:04.018Z,19.80
2018-12-16T21:46:30.976Z,19.83
2018-12-16T21:48:57.913Z,17.43
2018-12-16T21:51:24.886Z,23.50
2018-12-16T21:53:51.834Z,18.93
2018-12-16T21:56:18.796Z,21.10
2018-12-16T21:58:45.753Z,19.03
2018-12-16T22:01:12.679Z,19.83
2018-12-16T22:03:39.637Z,20.40
2018-12-16T22:06:06.604Z,18.93
2018-12-16T22:08:33.587Z,21.07
2018-12-16T22:11:00.521Z,19.57
2018-12-16T22:13:27.473Z,21.73
2018-12-16T22:15:54.466Z,22.10
2018-12-16T22:18:21.336Z,19.70
2018-12-16T22:20:48.314Z,19.33
2018-12-16T22:23:15.255Z,22.30
2018-12-16T22:25:42.240Z,19.83
2018-12-16T22:28:09.634Z,18.97
2018-12-16T22:30:36.576Z,18.07
2018-12-16T22:33:03.573Z,21.77
2018-12-16T22:35:30.545Z,21.17
2018-12-16T22:37:57.509Z,20.70
2018-12-16T22:40:24.442Z,22.00
2018-12-16T22:42:51.406Z,20.17
2018-12-16T22:45:18.344Z,22.03
2018-12-16T22:47:45.292Z,19.03
2018-12-16T22:50:12.283Z,21.37
2018-12-16T22:52:39.229Z,21.20
2018-12-16T22:55:06.165Z,17.87
2018-12-16T22:57:33.137Z,18.67
2018-12-16T23:00:00.092Z,18.27
2018-12-16T23:02:27.048Z,20.83
2018-12-16T23:04:54.012Z,19.20
2018-12-16T23:07:20.976Z,17.87
2018-12-16T23:09:47.936Z,20.43
2018-12-16T23:12:14.926Z,19.57
2018-12-16T23:14:41.876Z,18.80
2018-12-16T23:17:08.825Z,20.67
2018-12-16T23:19:35.833Z,21.53
2018-12-16T23:22:02.776Z,20.03
2018-12-16T23:24:29.751Z,22.33
2018-12-16T23:26:56.747Z,18.70
2018-12-16T23:29:24.143Z,18.20
2018-12-16T23:31:51.091Z,20.57
2018-12-16T23:34:18.054Z,20.80
2018-12-16T23:36:45.022Z,18.57
2018-12-16T23:39:12.017Z,17.53
2018-12-16T23:41:38.997Z,34.23
2018-12-16T23:44:05.931Z,53.33
2018-12-16T23:46:32.869Z,32.17
2018-12-16T23:48:59.861Z,25.53
2018-12-16T23:51:26.823Z,23.13
2018-12-16T23:53:53.769Z,21.77
2018-12-16T23:56:20.776Z,21.17
2018-12-16T23:58:47.704Z,153.93
